createdAt,value
2023-07-10T00:01:02.128Z,26.55
2023-07-10T00:03:31.930Z,26.55
2023-07-10T00:05:59.919Z,26.58
2023-07-10T00:08:27.525Z,26.58
2023-07-10T00:10:55.007Z,26.55
2023-07-10T00:13:22.960Z,26.52
2023-07-10T00:15:52.242Z,26.48
2023-07-10T00:18:23.863Z,26.43
2023-07-10T00:20:51.180Z,26.44
2023-07-10T00:23:19.078Z,26.46
2023-07-10T00:25:46.376Z,26.47
2023-07-10T00:28:17.262Z,26.47
2023-07-10T00:30:46.931Z,26.50
2023-07-10T00:33:16.720Z,26.48
2023-07-10T00:35:45.979Z,26.44
2023-07-10T00:38:19.724Z,26.42
2023-07-10T00:40:48.328Z,26.44
2023-07-10T00:43:29.372Z,26.41
2023-07-10T00:46:10.194Z,26.44
2023-07-10T00:48:43.766Z,26.47
2023-07-10T00:51:27.933Z,26.48
2023-07-10T00:53:57.711Z,26.53
2023-07-10T00:56:34.681Z,26.53
2023-07-10T00:59:22.592Z,26.41
2023-07-10T01:02:20.045Z,26.31
2023-07-10T01:04:55.412Z,26.29
2023-07-10T01:07:27.401Z,26.30
2023-07-10T01:10:01.585Z,26.27
2023-07-10T01:12:31.680Z,26.24
2023-07-10T01:14:59.002Z,26.23
2023-07-10T01:17:29.067Z,26.22
2023-07-10T01:20:01.077Z,26.15
2023-07-10T01:22:29.906Z,26.11
2023-07-10T01:24:57.160Z,26.08
2023-07-10T01:27:24.758Z,26.06
2023-07-10T01:30:01.804Z,26.05
2023-07-10T01:32:30.213Z,26.08
2023-07-10T01:35:04.727Z,26.05
2023-07-10T01:37:32.987Z,26.04
2023-07-10T01:40:00.045Z,26.02
2023-07-10T01:42:27.092Z,26.03
2023-07-10T01:44:54.162Z,26.06
2023-07-10T01:47:21.735Z,26.12
2023-07-10T01:49:54.118Z,26.18
2023-07-10T01:52:24.002Z,26.25
2023-07-10T01:54:54.963Z,26.32
2023-07-10T01:57:25.061Z,26.34
2023-07-10T01:59:52.684Z,26.32
2023-07-10T02:02:19.972Z,26.33
2023-07-10T02:04:46.969Z,26.34
2023-07-10T02:07:13.888Z,26.37
2023-07-10T02:09:40.877Z,26.38
2023-07-10T02:12:10.561Z,26.38
2023-07-10T02:14:37.479Z,26.39
2023-07-10T02:17:05.143Z,26.39
2023-07-10T02:19:32.251Z,26.37
2023-07-10T02:21:59.169Z,26.33
2023-07-10T02:24:26.094Z,26.29
2023-07-10T02:26:53.108Z,26.27
2023-07-10T02:29:21.533Z,26.24
2023-07-10T02:31:51.865Z,26.23
2023-07-10T02:34:19.050Z,26.24
2023-07-10T02:36:46.047Z,26.22
2023-07-10T02:39:13.116Z,26.18
2023-07-10T02:41:40.089Z,26.17
2023-07-10T02:44:07.009Z,26.17
2023-07-10T02:46:35.345Z,26.17
2023-07-10T02:49:02.323Z,26.19
2023-07-10T02:51:29.437Z,26.21
2023-07-10T02:53:56.450Z,26.23
2023-07-10T02:56:23.421Z,26.23
2023-07-10T02:58:51.420Z,26.23
2023-07-10T03:01:18.456Z,26.19
2023-07-10T03:03:47.964Z,26.15
2023-07-10T03:06:15.508Z,26.11
2023-07-10T03:08:42.415Z,26.07
2023-07-10T03:11:16.435Z,26.07
2023-07-10T03:13:43.899Z,26.10
2023-07-10T03:16:14.050Z,26.11
2023-07-10T03:18:41.842Z,26.10
2023-07-10T03:21:11.461Z,26.06
2023-07-10T03:23:38.409Z,26.04
2023-07-10T03:26:05.961Z,26.03
2023-07-10T03:28:36.942Z,26.03
2023-07-10T03:31:04.556Z,26.05
2023-07-10T03:33:31.556Z,26.07
2023-07-10T03:35:59.755Z,26.07
2023-07-10T03:38:28.338Z,26.06
2023-07-10T03:40:58.136Z,26.06
2023-07-10T03:43:26.568Z,26.08
2023-07-10T03:45:56.288Z,26.07
2023-07-10T03:48:23.870Z,26.10
2023-07-10T03:50:50.901Z,26.08
2023-07-10T03:53:17.835Z,26.04
2023-07-10T03:55:54.970Z,26.01
2023-07-10T03:58:25.501Z,25.99
2023-07-10T04:00:52.632Z,25.99
2023-07-10T04:03:23.718Z,25.99
2023-07-10T04:05:54.034Z,25.96
2023-07-10T04:08:22.529Z,25.97
2023-07-10T04:10:52.787Z,25.97
2023-07-10T04:13:20.443Z,25.99
2023-07-10T04:15:58.177Z,25.96
2023-07-10T04:18:27.663Z,25.97
2023-07-10T04:20:54.647Z,25.96
2023-07-10T04:23:21.703Z,25.98
2023-07-10T04:25:50.903Z,25.98
2023-07-10T04:28:18.000Z,25.97
2023-07-10T04:30:46.659Z,25.95
2023-07-10T04:33:15.171Z,25.91
2023-07-10T04:35:42.369Z,25.89
2023-07-10T04:38:09.718Z,25.87
2023-07-10T04:40:37.180Z,25.85
2023-07-10T04:43:05.923Z,25.86
2023-07-10T04:45:32.960Z,25.83
2023-07-10T04:48:00.002Z,25.86
2023-07-10T04:50:27.074Z,25.84
2023-07-10T04:52:54.018Z,25.80
2023-07-10T04:55:21.075Z,25.80
2023-07-10T04:57:48.039Z,25.80
2023-07-10T05:00:18.568Z,25.81
2023-07-10T05:02:45.658Z,25.83
2023-07-10T05:05:12.617Z,25.85
2023-07-10T05:07:39.517Z,25.89
2023-07-10T05:10:07.257Z,25.93
2023-07-10T05:12:34.608Z,25.95
2023-07-10T05:15:01.564Z,25.96
2023-07-10T05:17:29.837Z,26.00
2023-07-10T05:19:56.871Z,26.03
2023-07-10T05:22:23.869Z,26.02
2023-07-10T05:24:50.841Z,26.02
2023-07-10T05:27:17.748Z,26.00
2023-07-10T05:29:44.973Z,26.01
2023-07-10T05:32:11.988Z,26.03
2023-07-10T05:34:40.252Z,26.05
2023-07-10T05:37:07.198Z,26.06
2023-07-10T05:39:34.132Z,26.05
2023-07-10T05:42:01.131Z,26.05
2023-07-10T05:44:28.109Z,26.04
2023-07-10T05:46:57.198Z,26.08
2023-07-10T05:49:25.087Z,26.10
2023-07-10T05:51:53.729Z,26.09
2023-07-10T05:54:21.083Z,26.03
2023-07-10T05:56:48.620Z,26.01
2023-07-10T05:59:16.484Z,26.00
2023-07-10T06:01:43.487Z,26.00
2023-07-10T06:04:10.527Z,26.02
2023-07-10T06:06:37.548Z,26.07
2023-07-10T06:09:05.776Z,26.11
2023-07-10T06:11:34.130Z,26.11
2023-07-10T06:14:01.200Z,26.15
2023-07-10T06:16:29.141Z,26.25
2023-07-10T06:18:56.231Z,26.32
2023-07-10T06:21:23.237Z,26.37
2023-07-10T06:23:50.363Z,26.40
2023-07-10T06:26:18.681Z,26.45
2023-07-10T06:28:45.595Z,26.51
2023-07-10T06:31:12.999Z,26.59
2023-07-10T06:33:40.581Z,26.61
2023-07-10T06:36:08.346Z,26.60
2023-07-10T06:38:35.905Z,26.59
2023-07-10T06:41:06.764Z,26.60
2023-07-10T06:43:35.810Z,26.62
2023-07-10T06:46:03.080Z,26.65
2023-07-10T06:48:30.136Z,26.71
2023-07-10T06:50:57.576Z,26.79
2023-07-10T06:53:27.766Z,26.85
2023-07-10T06:55:58.181Z,26.89
2023-07-10T06:58:25.797Z,26.88
2023-07-10T07:00:55.292Z,26.88
2023-07-10T07:03:22.618Z,26.80
2023-07-10T07:05:49.942Z,26.73
2023-07-10T07:08:18.729Z,26.70
2023-07-10T07:10:47.743Z,26.65
2023-07-10T07:13:15.197Z,26.66
2023-07-10T07:15:42.402Z,26.75
2023-07-10T07:18:10.748Z,26.90
2023-07-10T07:20:39.502Z,27.07
2023-07-10T07:23:06.421Z,27.17
2023-07-10T07:25:33.483Z,27.25
2023-07-10T07:28:00.579Z,27.31
2023-07-10T07:30:29.166Z,27.36
2023-07-10T07:32:57.208Z,27.42
2023-07-10T07:35:25.540Z,27.48
2023-07-10T07:37:52.479Z,27.63
2023-07-10T07:40:19.496Z,27.70
2023-07-10T07:42:48.005Z,27.77
2023-07-10T07:45:16.529Z,27.85
2023-07-10T07:47:45.326Z,27.94
2023-07-10T07:50:12.890Z,28.05
2023-07-10T07:52:41.254Z,28.25
2023-07-10T07:55:10.009Z,28.36
2023-07-10T07:57:39.430Z,28.43
2023-07-10T08:00:09.231Z,28.45
2023-07-10T08:02:36.237Z,28.52
2023-07-10T08:05:04.490Z,28.66
2023-07-10T08:07:34.285Z,28.82
2023-07-10T08:10:04.968Z,28.91
2023-07-10T08:12:31.992Z,28.98
2023-07-10T08:14:59.240Z,29.05
2023-07-10T08:17:26.135Z,29.05
2023-07-10T08:19:53.650Z,29.40
2023-07-10T08:22:20.567Z,29.97
2023-07-10T08:24:47.497Z,30.20
2023-07-10T08:27:15.946Z,30.25
2023-07-10T08:29:43.040Z,30.23
2023-07-10T08:32:10.201Z,30.17
2023-07-10T08:34:39.735Z,30.14
2023-07-10T08:37:06.993Z,30.07
2023-07-10T08:39:33.966Z,29.98
2023-07-10T08:42:17.853Z,29.87
2023-07-10T08:44:50.501Z,29.72
2023-07-10T08:47:24.226Z,29.57
2023-07-10T08:50:01.410Z,29.45
2023-07-10T08:52:38.436Z,29.28
2023-07-10T08:55:12.972Z,29.18
2023-07-10T08:57:49.252Z,29.19
2023-07-10T09:00:17.902Z,29.19
2023-07-10T09:02:51.203Z,29.03
2023-07-10T09:05:24.158Z,28.92
2023-07-10T09:07:52.168Z,28.94
2023-07-10T09:10:23.806Z,29.27
2023-07-10T09:12:54.445Z,29.95
2023-07-10T09:15:29.751Z,30.90
2023-07-10T09:18:06.928Z,31.11
2023-07-10T09:20:37.465Z,31.14
2023-07-10T09:23:22.434Z,30.87
2023-07-10T09:25:56.931Z,30.58
2023-07-10T09:28:25.959Z,30.30
2023-07-10T09:31:21.295Z,29.98
2023-07-10T09:33:59.314Z,29.82
2023-07-10T09:36:27.693Z,29.92
2023-07-10T09:38:57.966Z,30.05
2023-07-10T09:41:28.496Z,30.10
2023-07-10T09:44:12.020Z,30.69
2023-07-10T09:46:40.479Z,32.33
2023-07-10T09:49:15.517Z,34.45
2023-07-10T09:51:57.227Z,35.41
2023-07-10T09:54:25.492Z,35.41
2023-07-10T09:56:55.052Z,35.02
2023-07-10T09:59:27.028Z,34.86
2023-07-10T10:01:56.654Z,34.60
2023-07-10T10:04:27.732Z,34.22
2023-07-10T10:07:03.475Z,33.87
2023-07-10T10:09:31.498Z,33.96
2023-07-10T10:12:06.481Z,33.95
2023-07-10T10:14:45.825Z,34.11
2023-07-10T10:17:21.748Z,34.13
2023-07-10T10:19:56.557Z,34.41
2023-07-10T10:22:33.331Z,34.99
2023-07-10T10:25:01.090Z,35.15
2023-07-10T10:27:39.423Z,34.97
2023-07-10T10:30:27.393Z,35.87
2023-07-10T10:33:14.297Z,36.89
2023-07-10T10:35:58.573Z,37.03
2023-07-10T10:38:41.089Z,36.53
2023-07-10T10:41:27.613Z,35.83
2023-07-10T10:44:06.099Z,35.16
2023-07-10T10:46:53.178Z,34.57
2023-07-10T10:49:42.229Z,34.02
2023-07-10T10:52:25.593Z,33.68
2023-07-10T10:55:17.668Z,33.32
2023-07-10T10:57:58.580Z,33.10
2023-07-10T11:00:51.359Z,32.88
2023-07-10T11:03:28.357Z,32.67
2023-07-10T11:06:18.024Z,32.55
2023-07-10T11:08:51.659Z,32.45
2023-07-10T11:11:27.896Z,32.44
2023-07-10T11:14:05.205Z,32.42
2023-07-10T11:16:36.613Z,32.32
2023-07-10T11:19:05.613Z,32.17
2023-07-10T11:21:34.973Z,32.01
2023-07-10T11:24:17.720Z,31.86
2023-07-10T11:26:52.779Z,31.78
2023-07-10T11:29:30.100Z,31.62
2023-07-10T11:32:15.933Z,31.50
2023-07-10T11:35:21.312Z,31.22
2023-07-10T11:38:22.775Z,31.08
2023-07-10T11:40:53.091Z,31.12
2023-07-10T11:44:13.322Z,31.00
2023-07-10T11:47:00.864Z,31.07
2023-07-10T11:49:44.880Z,31.39
2023-07-10T11:52:28.065Z,31.57
2023-07-10T11:55:15.292Z,31.74
2023-07-10T11:57:42.728Z,31.72
2023-07-10T12:00:27.772Z,31.56
2023-07-10T12:03:00.788Z,31.49
2023-07-10T12:05:37.006Z,31.36
2023-07-10T12:08:13.003Z,31.34
2023-07-10T12:10:46.619Z,31.33
2023-07-10T12:13:19.613Z,31.35
2023-07-10T12:15:48.721Z,31.33
2023-07-10T12:18:20.653Z,31.27
2023-07-10T12:20:51.620Z,31.26
2023-07-10T12:23:19.773Z,31.27
2023-07-10T12:25:54.413Z,31.37
2023-07-10T12:28:28.533Z,31.47
2023-07-10T12:30:59.187Z,31.56
2023-07-10T12:33:42.337Z,31.57
2023-07-10T12:36:24.556Z,31.57
2023-07-10T12:38:53.989Z,31.54
2023-07-10T12:41:23.492Z,31.49
2023-07-10T12:43:54.349Z,31.41
2023-07-10T12:46:25.773Z,31.35
2023-07-10T12:49:00.210Z,31.34
2023-07-10T12:51:31.864Z,31.38
2023-07-10T12:54:01.668Z,31.40
2023-07-10T12:56:34.875Z,31.40
2023-07-10T12:59:18.200Z,31.38
2023-07-10T13:01:52.659Z,31.41
2023-07-10T13:04:24.866Z,31.48
2023-07-10T13:07:29.358Z,31.45
2023-07-10T13:10:01.449Z,31.48
2023-07-10T13:12:33.439Z,31.49
2023-07-10T13:15:03.871Z,31.51
2023-07-10T13:17:37.685Z,31.51
2023-07-10T13:20:20.822Z,31.49
2023-07-10T13:22:47.967Z,31.54
2023-07-10T13:25:15.190Z,31.57
2023-07-10T13:27:43.580Z,31.61
2023-07-10T13:30:17.977Z,31.69
2023-07-10T13:32:45.054Z,31.81
2023-07-10T13:35:12.387Z,32.02
2023-07-10T13:37:39.809Z,32.15
2023-07-10T13:40:12.868Z,32.10
2023-07-10T13:42:39.919Z,32.02
2023-07-10T13:45:10.098Z,31.91
2023-07-10T13:47:37.136Z,31.86
2023-07-10T13:50:05.117Z,31.86
2023-07-10T13:52:32.305Z,31.88
2023-07-10T13:54:59.263Z,31.87
2023-07-10T13:57:32.965Z,31.86
2023-07-10T14:00:02.369Z,31.91
2023-07-10T14:02:36.620Z,31.96
2023-07-10T14:05:08.450Z,31.99
2023-07-10T14:07:36.843Z,32.02
2023-07-10T14:10:05.843Z,32.10
2023-07-10T14:12:35.805Z,32.20
2023-07-10T14:15:03.600Z,32.22
2023-07-10T14:17:34.270Z,32.22
2023-07-10T14:20:02.427Z,32.20
2023-07-10T14:22:33.281Z,32.14
2023-07-10T14:25:00.276Z,32.09
2023-07-10T14:27:28.784Z,31.92
2023-07-10T14:29:58.947Z,31.82
2023-07-10T14:32:28.012Z,31.74
2023-07-10T14:34:56.803Z,31.66
2023-07-10T14:37:27.867Z,31.57
2023-07-10T14:39:55.213Z,31.47
2023-07-10T14:42:27.281Z,31.33
2023-07-10T14:44:54.791Z,31.21
2023-07-10T14:47:32.092Z,31.10
2023-07-10T14:50:02.203Z,31.07
2023-07-10T14:52:34.399Z,31.04
2023-07-10T14:55:05.772Z,31.01
2023-07-10T14:57:36.153Z,30.99
2023-07-10T15:00:13.666Z,30.96
2023-07-10T15:02:40.632Z,30.99
2023-07-10T15:05:09.356Z,31.27
2023-07-10T15:07:39.124Z,31.26
2023-07-10T15:10:25.954Z,31.09
2023-07-10T15:12:56.415Z,30.92
2023-07-10T15:15:32.342Z,30.65
2023-07-10T15:17:59.810Z,30.36
2023-07-10T15:20:28.654Z,30.13
2023-07-10T15:22:55.799Z,29.90
2023-07-10T15:25:26.391Z,29.71
2023-07-10T15:27:54.358Z,29.60
2023-07-10T15:30:25.127Z,29.50
2023-07-10T15:32:52.690Z,29.41
2023-07-10T15:35:22.684Z,29.34
2023-07-10T15:37:51.052Z,29.30
2023-07-10T15:40:22.115Z,29.25
2023-07-10T15:42:53.711Z,29.24
2023-07-10T15:45:22.062Z,29.27
2023-07-10T15:47:57.250Z,29.29
2023-07-10T15:50:27.006Z,29.35
2023-07-10T15:52:55.724Z,29.45
2023-07-10T15:55:28.903Z,29.50
2023-07-10T15:57:57.289Z,29.52
2023-07-10T16:00:30.266Z,29.51
2023-07-10T16:02:57.270Z,29.56
2023-07-10T16:05:28.619Z,29.67
2023-07-10T16:07:58.822Z,29.79
2023-07-10T16:10:27.818Z,29.95
2023-07-10T16:12:56.851Z,30.08
2023-07-10T16:15:27.119Z,30.23
2023-07-10T16:17:57.235Z,30.36
2023-07-10T16:20:28.122Z,30.57
2023-07-10T16:23:05.204Z,30.83
2023-07-10T16:25:32.874Z,31.15
2023-07-10T16:27:59.776Z,31.49
2023-07-10T16:30:27.256Z,31.75
2023-07-10T16:32:54.233Z,31.96
2023-07-10T16:35:24.357Z,32.14
2023-07-10T16:37:53.089Z,32.26
2023-07-10T16:40:25.537Z,32.36
2023-07-10T16:42:56.835Z,32.39
2023-07-10T16:45:27.932Z,32.42
2023-07-10T16:47:55.659Z,32.48
2023-07-10T16:50:24.750Z,32.54
2023-07-10T16:52:52.411Z,32.59
2023-07-10T16:55:26.053Z,32.57
2023-07-10T16:57:55.497Z,32.51
2023-07-10T17:00:31.713Z,32.45
2023-07-10T17:03:01.188Z,32.44
2023-07-10T17:05:28.328Z,32.38
2023-07-10T17:07:59.762Z,32.38
2023-07-10T17:10:29.019Z,32.34
2023-07-10T17:12:55.985Z,32.24
2023-07-10T17:15:23.409Z,32.13
2023-07-10T17:17:50.376Z,31.97
2023-07-10T17:20:19.461Z,31.85
2023-07-10T17:22:46.785Z,31.69
2023-07-10T17:25:17.212Z,31.55
2023-07-10T17:27:46.505Z,31.38
2023-07-10T17:30:15.583Z,31.32
2023-07-10T17:32:43.370Z,31.22
2023-07-10T17:35:19.386Z,31.08
2023-07-10T17:37:50.284Z,30.97
2023-07-10T17:40:18.171Z,30.88
2023-07-10T17:42:48.453Z,30.81
2023-07-10T17:45:19.590Z,30.77
2023-07-10T17:47:47.818Z,30.70
2023-07-10T17:50:16.788Z,30.69
2023-07-10T17:52:47.116Z,30.62
2023-07-10T17:55:19.816Z,30.55
2023-07-10T17:57:50.174Z,30.51
2023-07-10T18:00:19.580Z,30.48
2023-07-10T18:02:47.681Z,30.42
2023-07-10T18:05:17.057Z,30.36
2023-07-10T18:07:44.161Z,30.32
2023-07-10T18:10:11.898Z,30.27
2023-07-10T18:12:39.823Z,30.21
2023-07-10T18:15:15.404Z,30.10
2023-07-10T18:17:44.613Z,30.06
2023-07-10T18:20:12.903Z,30.04
2023-07-10T18:22:42.477Z,29.98
2023-07-10T18:25:17.696Z,29.86
2023-07-10T18:27:46.634Z,29.79
2023-07-10T18:30:17.015Z,29.74
2023-07-10T18:32:44.380Z,29.71
2023-07-10T18:35:16.429Z,29.66
2023-07-10T18:37:43.456Z,29.60
2023-07-10T18:40:12.516Z,29.58
2023-07-10T18:42:39.817Z,29.52
2023-07-10T18:45:17.459Z,29.43
2023-07-10T18:47:44.494Z,29.43
2023-07-10T18:50:15.972Z,29.43
2023-07-10T18:52:43.836Z,29.43
2023-07-10T18:55:16.792Z,29.41
2023-07-10T18:57:43.914Z,29.39
2023-07-10T19:00:20.660Z,29.34
2023-07-10T19:02:47.838Z,29.31
2023-07-10T19:05:15.474Z,29.27
2023-07-10T19:07:42.792Z,29.25
2023-07-10T19:10:16.814Z,29.22
2023-07-10T19:12:43.841Z,29.22
2023-07-10T19:15:12.067Z,29.22
2023-07-10T19:17:42.352Z,29.22
2023-07-10T19:20:20.145Z,29.17
2023-07-10T19:22:47.948Z,29.17
2023-07-10T19:25:16.383Z,29.14
2023-07-10T19:27:43.422Z,29.11
2023-07-10T19:30:17.752Z,29.07
2023-07-10T19:32:46.386Z,29.05
2023-07-10T19:35:18.168Z,29.02
2023-07-10T19:37:45.495Z,28.99
2023-07-10T19:40:21.120Z,28.95
2023-07-10T19:42:48.689Z,28.95
2023-07-10T19:45:16.463Z,28.93
2023-07-10T19:47:45.241Z,28.91
2023-07-10T19:50:18.557Z,28.87
2023-07-10T19:52:45.647Z,28.85
2023-07-10T19:55:14.338Z,28.81
2023-07-10T19:57:41.846Z,28.78
2023-07-10T20:00:20.103Z,28.72
2023-07-10T20:02:50.418Z,28.71
2023-07-10T20:05:17.504Z,28.70
2023-07-10T20:07:44.804Z,28.67
2023-07-10T20:10:17.256Z,28.60
2023-07-10T20:12:44.414Z,28.59
2023-07-10T20:15:15.653Z,28.58
2023-07-10T20:17:46.497Z,28.56
2023-07-10T20:20:21.889Z,28.51
2023-07-10T20:22:49.831Z,28.49
2023-07-10T20:25:16.937Z,28.42
2023-07-10T20:27:44.592Z,28.38
2023-07-10T20:30:17.657Z,28.31
2023-07-10T20:32:46.201Z,28.26
2023-07-10T20:35:16.561Z,28.18
2023-07-10T20:37:46.331Z,28.12
2023-07-10T20:40:15.183Z,28.06
2023-07-10T20:42:42.269Z,27.98
2023-07-10T20:45:14.860Z,27.96
2023-07-10T20:47:49.272Z,27.96
2023-07-10T20:50:17.834Z,27.96
2023-07-10T20:52:48.611Z,27.96
2023-07-10T20:55:15.823Z,27.92
2023-07-10T20:57:42.996Z,27.90
2023-07-10T21:00:16.440Z,27.84
2023-07-10T21:02:43.574Z,27.84
2023-07-10T21:05:10.714Z,27.81
2023-07-10T21:07:37.936Z,27.79
2023-07-10T21:10:11.288Z,27.76
2023-07-10T21:12:38.325Z,27.73
2023-07-10T21:15:06.831Z,27.73
2023-07-10T21:17:34.930Z,27.73
2023-07-10T21:20:02.789Z,27.73
2023-07-10T21:22:29.738Z,27.69
2023-07-10T21:24:56.645Z,27.66
2023-07-10T21:27:28.871Z,27.62
2023-07-10T21:30:01.390Z,27.58
2023-07-10T21:32:29.978Z,27.55
2023-07-10T21:34:57.807Z,27.48
2023-07-10T21:37:24.770Z,27.43
2023-07-10T21:39:52.224Z,27.39
2023-07-10T21:42:22.308Z,27.34
2023-07-10T21:44:53.113Z,27.30
2023-07-10T21:47:20.213Z,27.26
2023-07-10T21:49:47.151Z,27.21
2023-07-10T21:52:14.157Z,27.13
2023-07-10T21:54:41.273Z,27.10
2023-07-10T21:57:18.699Z,27.05
2023-07-10T21:59:45.794Z,27.00
2023-07-10T22:02:14.068Z,26.99
2023-07-10T22:04:41.006Z,26.99
2023-07-10T22:07:07.920Z,26.95
2023-07-10T22:09:34.914Z,26.87
2023-07-10T22:12:01.967Z,26.82
2023-07-10T22:14:28.880Z,26.78
2023-07-10T22:17:09.892Z,26.76
2023-07-10T22:19:43.326Z,26.72
2023-07-10T22:22:11.926Z,26.68
2023-07-10T22:24:38.898Z,26.66
2023-07-10T22:27:10.574Z,26.67
2023-07-10T22:29:39.241Z,26.64
2023-07-10T22:32:09.039Z,26.61
2023-07-10T22:34:35.987Z,26.57
2023-07-10T22:37:04.928Z,26.53
2023-07-10T22:39:31.878Z,26.49
2023-07-10T22:41:58.953Z,26.46
2023-07-10T22:44:27.184Z,26.42
2023-07-10T22:46:54.181Z,26.37
2023-07-10T22:49:21.129Z,26.32
2023-07-10T22:51:48.057Z,26.29
2023-07-10T22:54:16.302Z,26.25
2023-07-10T22:56:44.726Z,26.20
2023-07-10T22:59:17.297Z,26.17
2023-07-10T23:01:44.688Z,26.15
2023-07-10T23:04:12.581Z,26.16
2023-07-10T23:06:39.707Z,26.15
2023-07-10T23:09:09.009Z,26.12
2023-07-10T23:11:37.336Z,26.07
2023-07-10T23:14:04.430Z,26.03
2023-07-10T23:16:31.490Z,25.99
2023-07-10T23:19:00.564Z,25.93
2023-07-10T23:21:29.373Z,25.88
2023-07-10T23:23:56.570Z,25.83
2023-07-10T23:26:25.542Z,25.77
2023-07-10T23:28:54.074Z,25.71
2023-07-10T23:31:25.364Z,25.68
2023-07-10T23:33:53.241Z,25.68
2023-07-10T23:36:22.631Z,25.68
2023-07-10T23:38:50.122Z,25.60
2023-07-10T23:41:17.310Z,25.53
2023-07-10T23:43:45.470Z,25.46
2023-07-10T23:46:13.950Z,25.42
2023-07-10T23:48:43.391Z,25.42
2023-07-10T23:51:11.310Z,25.40
2023-07-10T23:53:38.512Z,25.37
2023-07-10T23:56:06.181Z,25.38
2023-07-10T23:58:36.499Z,25.39
